ACA331 CYQM-CYQB
Flight info
| Callsign | ACA331 |
|---|---|
| Flight time | 0h 52m |
| Altitude | 36000 |
| Route | IRDUV DCT KAROT KAROT6 |
| Aircraft | A21N/M-SDE2E3FGHIRWXY/LB1 |
Departure
| Time | 2026-05-09 02:01 |
|---|---|
| Airport | Greater Moncton Roméo LeBlanc International Airport (CYQM) |
Arrival
| Time | 2026-05-09 02:53 |
|---|---|
| Airport | Quebec Jean Lesage International Airport (CYQB) |
| Time | Latitude | Longitude | Altitude | Speed | Heading |
|---|---|---|---|---|---|
| 2026-05-09 01:38 | 46.11519 | -64.68800 | 222 ft | 0 kts | 328° |
| 2026-05-09 01:50 | 46.11502 | -64.68796 | 223 ft | 3 kts | 30° |
| 2026-05-09 01:51 | 46.11494 | -64.68804 | 225 ft | 0 kts | 63° |
| 2026-05-09 01:55 | 46.11494 | -64.68803 | 222 ft | 4 kts | 63° |
| 2026-05-09 01:55 | 46.11514 | -64.68691 | 222 ft | 15 kts | 95° |
| 2026-05-09 01:55 | 46.11554 | -64.68513 | 223 ft | 23 kts | 60° |
| 2026-05-09 01:55 | 46.11673 | -64.68333 | 222 ft | 25 kts | 43° |
| 2026-05-09 01:56 | 46.11783 | -64.68186 | 222 ft | 0 kts | 43° |
| 2026-05-09 01:57 | 46.11784 | -64.68185 | 222 ft | 1 kts | 43° |
| 2026-05-09 01:57 | 46.11849 | -64.68097 | 223 ft | 24 kts | 44° |
| 2026-05-09 01:57 | 46.11892 | -64.67911 | 222 ft | 20 kts | 133° |
| 2026-05-09 01:57 | 46.11878 | -64.67739 | 222 ft | 19 kts | 41° |
| 2026-05-09 01:58 | 46.11981 | -64.67608 | 223 ft | 22 kts | 41° |
| 2026-05-09 01:58 | 46.12107 | -64.67442 | 224 ft | 27 kts | 43° |
| 2026-05-09 01:58 | 46.12258 | -64.67242 | 218 ft | 32 kts | 42° |
| 2026-05-09 01:58 | 46.12435 | -64.67009 | 216 ft | 36 kts | 43° |
| 2026-05-09 01:59 | 46.12599 | -64.66903 | 216 ft | 20 kts | 30° |
| 2026-05-09 01:59 | 46.12612 | -64.66792 | 215 ft | 12 kts | 186° |
| 2026-05-09 01:59 | 46.12582 | -64.66818 | 214 ft | 0 kts | 224° |
| 2026-05-09 02:00 | 46.12581 | -64.66819 | 212 ft | 1 kts | 224° |
| 2026-05-09 02:00 | 46.12465 | -64.66976 | 218 ft | 51 kts | 222° |
| 2026-05-09 02:00 | 46.12062 | -64.67500 | 222 ft | 106 kts | 223° |
| 2026-05-09 02:00 | 46.11377 | -64.68403 | 238 ft | 156 kts | 225° |
| 2026-05-09 02:01 | 46.10620 | -64.69454 | 750 ft | 151 kts | 226° |
| 2026-05-09 02:01 | 46.09863 | -64.70595 | 1078 ft | 159 kts | 229° |
| 2026-05-09 02:01 | 46.09113 | -64.71768 | 1571 ft | 158 kts | 229° |
| 2026-05-09 02:01 | 46.08347 | -64.72866 | 2106 ft | 156 kts | 228° |
| 2026-05-09 02:02 | 46.07543 | -64.74010 | 2387 ft | 173 kts | 228° |
| 2026-05-09 02:02 | 46.06674 | -64.75267 | 2759 ft | 179 kts | 229° |
| 2026-05-09 02:02 | 46.05882 | -64.76623 | 3249 ft | 173 kts | 250° |
| 2026-05-09 02:02 | 46.05820 | -64.78296 | 3519 ft | 177 kts | 296° |
| 2026-05-09 02:03 | 46.06532 | -64.79799 | 3716 ft | 188 kts | 308° |
| 2026-05-09 02:03 | 46.07387 | -64.81342 | 3832 ft | 207 kts | 308° |
| 2026-05-09 02:03 | 46.08345 | -64.83027 | 3937 ft | 227 kts | 309° |
| 2026-05-09 02:03 | 46.09393 | -64.84826 | 4169 ft | 241 kts | 310° |
| 2026-05-09 02:04 | 46.10497 | -64.86704 | 4573 ft | 248 kts | 310° |
| 2026-05-09 02:04 | 46.11622 | -64.88616 | 5292 ft | 251 kts | 310° |
| 2026-05-09 02:04 | 46.12755 | -64.90549 | 6093 ft | 253 kts | 310° |
| 2026-05-09 02:04 | 46.13882 | -64.92477 | 6844 ft | 256 kts | 309° |
| 2026-05-09 02:05 | 46.15032 | -64.94452 | 7636 ft | 258 kts | 309° |
| 2026-05-09 02:05 | 46.16190 | -64.96448 | 8453 ft | 261 kts | 309° |
| 2026-05-09 02:05 | 46.17363 | -64.98472 | 9283 ft | 264 kts | 309° |
| 2026-05-09 02:05 | 46.18546 | -65.00516 | 10056 ft | 267 kts | 308° |
| 2026-05-09 02:06 | 46.19765 | -65.02627 | 10509 ft | 283 kts | 308° |
| 2026-05-09 02:06 | 46.21072 | -65.04894 | 10827 ft | 303 kts | 308° |
| 2026-05-09 02:06 | 46.22463 | -65.07308 | 11152 ft | 322 kts | 308° |
| 2026-05-09 02:07 | 46.25401 | -65.12402 | 12412 ft | 338 kts | 308° |
| 2026-05-09 02:07 | 46.26758 | -65.15173 | 13152 ft | 341 kts | 297° |
| 2026-05-09 02:07 | 46.27709 | -65.18334 | 13859 ft | 345 kts | 289° |
| 2026-05-09 02:07 | 46.28444 | -65.21646 | 14536 ft | 347 kts | 285° |
| 2026-05-09 02:08 | 46.29060 | -65.25044 | 15222 ft | 350 kts | 283° |
| 2026-05-09 02:08 | 46.29617 | -65.28496 | 15851 ft | 353 kts | 283° |
| 2026-05-09 02:08 | 46.30153 | -65.31978 | 16494 ft | 356 kts | 283° |
| 2026-05-09 02:08 | 46.30693 | -65.35494 | 17129 ft | 359 kts | 283° |
| 2026-05-09 02:09 | 46.31244 | -65.39024 | 17762 ft | 362 kts | 283° |
| 2026-05-09 02:09 | 46.31812 | -65.42593 | 18357 ft | 365 kts | 283° |
| 2026-05-09 02:09 | 46.32389 | -65.46174 | 18882 ft | 368 kts | 283° |
| 2026-05-09 02:09 | 46.32977 | -65.49796 | 19410 ft | 371 kts | 283° |
| 2026-05-09 02:10 | 46.33563 | -65.53394 | 19939 ft | 374 kts | 283° |
| 2026-05-09 02:10 | 46.34161 | -65.57070 | 20472 ft | 377 kts | 283° |
| 2026-05-09 02:10 | 46.34762 | -65.60779 | 20989 ft | 380 kts | 283° |
| 2026-05-09 02:10 | 46.35366 | -65.64514 | 21481 ft | 383 kts | 283° |
| 2026-05-09 02:11 | 46.35974 | -65.68280 | 21966 ft | 386 kts | 283° |
| 2026-05-09 02:11 | 46.36585 | -65.72084 | 22427 ft | 389 kts | 283° |
| 2026-05-09 02:11 | 46.37199 | -65.75911 | 22883 ft | 392 kts | 283° |
| 2026-05-09 02:11 | 46.37815 | -65.79766 | 23327 ft | 394 kts | 283° |
| 2026-05-09 02:12 | 46.38436 | -65.83661 | 23699 ft | 397 kts | 283° |
| 2026-05-09 02:12 | 46.39057 | -65.87563 | 24048 ft | 400 kts | 283° |
| 2026-05-09 02:12 | 46.39682 | -65.91496 | 24399 ft | 402 kts | 283° |
| 2026-05-09 02:12 | 46.40311 | -65.95466 | 24737 ft | 405 kts | 283° |
| 2026-05-09 02:13 | 46.40934 | -65.99410 | 25084 ft | 407 kts | 283° |
| 2026-05-09 02:13 | 46.41566 | -66.03419 | 25402 ft | 409 kts | 283° |
| 2026-05-09 02:13 | 46.42199 | -66.07441 | 25733 ft | 411 kts | 283° |
| 2026-05-09 02:13 | 46.42835 | -66.11500 | 26052 ft | 413 kts | 282° |
| 2026-05-09 02:14 | 46.43475 | -66.15585 | 26361 ft | 416 kts | 282° |
| 2026-05-09 02:14 | 46.44114 | -66.19684 | 26681 ft | 418 kts | 282° |
| 2026-05-09 02:14 | 46.44755 | -66.23798 | 26981 ft | 420 kts | 282° |
| 2026-05-09 02:14 | 46.45398 | -66.27939 | 27275 ft | 422 kts | 282° |
| 2026-05-09 02:15 | 46.46043 | -66.32100 | 27563 ft | 424 kts | 282° |
| 2026-05-09 02:15 | 46.46690 | -66.36293 | 27847 ft | 426 kts | 282° |
| 2026-05-09 02:15 | 46.47338 | -66.40494 | 28167 ft | 427 kts | 282° |
| 2026-05-09 02:15 | 46.47982 | -66.44687 | 28566 ft | 426 kts | 282° |
| 2026-05-09 02:16 | 46.48625 | -66.48880 | 28965 ft | 425 kts | 282° |
| 2026-05-09 02:16 | 46.49265 | -66.53062 | 29340 ft | 424 kts | 282° |
| 2026-05-09 02:16 | 46.49903 | -66.57243 | 29690 ft | 424 kts | 282° |
| 2026-05-09 02:16 | 46.50530 | -66.61366 | 30003 ft | 423 kts | 282° |
| 2026-05-09 02:17 | 46.51162 | -66.65537 | 30292 ft | 423 kts | 281° |
| 2026-05-09 02:17 | 46.51793 | -66.69708 | 30566 ft | 422 kts | 281° |
| 2026-05-09 02:17 | 46.52420 | -66.73863 | 30830 ft | 421 kts | 281° |
| 2026-05-09 02:17 | 46.53048 | -66.78034 | 31076 ft | 421 kts | 281° |
| 2026-05-09 02:18 | 46.53672 | -66.82189 | 31339 ft | 420 kts | 281° |
| 2026-05-09 02:18 | 46.54291 | -66.86330 | 31640 ft | 419 kts | 281° |
| 2026-05-09 02:18 | 46.54908 | -66.90469 | 31866 ft | 419 kts | 281° |
| 2026-05-09 02:18 | 46.55524 | -66.94612 | 32062 ft | 419 kts | 281° |
| 2026-05-09 02:19 | 46.56138 | -66.98748 | 32258 ft | 419 kts | 281° |
| 2026-05-09 02:19 | 46.56752 | -67.02894 | 32468 ft | 420 kts | 281° |
| 2026-05-09 02:19 | 46.57364 | -67.07039 | 32672 ft | 419 kts | 281° |
| 2026-05-09 02:19 | 46.57975 | -67.11185 | 32881 ft | 419 kts | 281° |
| 2026-05-09 02:20 | 46.58584 | -67.15329 | 33074 ft | 419 kts | 281° |
| 2026-05-09 02:20 | 46.59193 | -67.19480 | 33275 ft | 419 kts | 281° |
| 2026-05-09 02:20 | 46.59797 | -67.23618 | 33525 ft | 417 kts | 281° |
| 2026-05-09 02:20 | 46.60398 | -67.27738 | 33729 ft | 417 kts | 281° |
| 2026-05-09 02:21 | 46.61000 | -67.31877 | 33872 ft | 417 kts | 281° |
| 2026-05-09 02:21 | 46.61591 | -67.35955 | 33992 ft | 418 kts | 281° |
| 2026-05-09 02:21 | 46.62191 | -67.40104 | 34111 ft | 418 kts | 280° |
| 2026-05-09 02:21 | 46.62787 | -67.44242 | 34231 ft | 418 kts | 280° |
| 2026-05-09 02:22 | 46.63384 | -67.48393 | 34358 ft | 418 kts | 280° |
| 2026-05-09 02:22 | 46.63891 | -67.52568 | 34468 ft | 418 kts | 277° |
| 2026-05-09 02:22 | 46.64328 | -67.56756 | 34593 ft | 418 kts | 277° |
| 2026-05-09 02:22 | 46.64743 | -67.60899 | 34706 ft | 418 kts | 277° |
| 2026-05-09 02:23 | 46.65158 | -67.65095 | 34844 ft | 418 kts | 277° |
| 2026-05-09 02:23 | 46.65982 | -67.73507 | 34984 ft | 420 kts | 277° |
| 2026-05-09 02:24 | 46.66803 | -67.81961 | 35147 ft | 422 kts | 276° |
| 2026-05-09 02:24 | 46.67616 | -67.90426 | 35306 ft | 423 kts | 277° |
| 2026-05-09 02:25 | 46.68429 | -67.98876 | 35452 ft | 424 kts | 277° |
| 2026-05-09 02:25 | 46.68834 | -68.03129 | 35559 ft | 424 kts | 277° |
| 2026-05-09 02:25 | 46.69240 | -68.07398 | 35640 ft | 425 kts | 277° |
| 2026-05-09 02:26 | 46.70045 | -68.15938 | 35760 ft | 426 kts | 277° |
| 2026-05-09 02:26 | 46.70846 | -68.24515 | 35870 ft | 428 kts | 276° |
| 2026-05-09 02:27 | 46.71646 | -68.33144 | 35876 ft | 429 kts | 276° |
| 2026-05-09 02:27 | 46.72437 | -68.41747 | 35871 ft | 428 kts | 276° |
| 2026-05-09 02:28 | 46.73221 | -68.50359 | 35853 ft | 428 kts | 276° |
| 2026-05-09 02:28 | 46.73994 | -68.58910 | 35860 ft | 428 kts | 276° |
| 2026-05-09 02:29 | 46.74763 | -68.67505 | 35862 ft | 428 kts | 276° |
| 2026-05-09 02:29 | 46.75527 | -68.76109 | 35867 ft | 428 kts | 276° |
| 2026-05-09 02:30 | 46.76285 | -68.84722 | 35414 ft | 428 kts | 276° |
| 2026-05-09 02:30 | 46.76663 | -68.89037 | 34723 ft | 429 kts | 276° |
| 2026-05-09 02:30 | 46.77038 | -68.93349 | 34026 ft | 430 kts | 276° |
| 2026-05-09 02:30 | 46.77413 | -68.97683 | 33234 ft | 431 kts | 276° |
| 2026-05-09 02:31 | 46.77788 | -69.02022 | 32419 ft | 431 kts | 276° |
| 2026-05-09 02:31 | 46.78162 | -69.06374 | 31621 ft | 432 kts | 276° |
| 2026-05-09 02:31 | 46.78533 | -69.10716 | 30863 ft | 432 kts | 276° |
| 2026-05-09 02:31 | 46.78901 | -69.15036 | 30339 ft | 426 kts | 276° |
| 2026-05-09 02:32 | 46.79263 | -69.19314 | 29769 ft | 422 kts | 276° |
| 2026-05-09 02:32 | 46.79619 | -69.23533 | 29253 ft | 414 kts | 276° |
| 2026-05-09 02:32 | 46.79968 | -69.27683 | 28578 ft | 411 kts | 276° |
| 2026-05-09 02:32 | 46.80311 | -69.31797 | 27694 ft | 405 kts | 276° |
| 2026-05-09 02:33 | 46.80536 | -69.34493 | 27024 ft | 402 kts | 276° |
| 2026-05-09 02:33 | 46.80870 | -69.38520 | 26068 ft | 396 kts | 276° |
| 2026-05-09 02:33 | 46.81304 | -69.43784 | 25170 ft | 392 kts | 276° |
| 2026-05-09 02:33 | 46.81628 | -69.47723 | 24592 ft | 389 kts | 276° |
| 2026-05-09 02:34 | 46.81844 | -69.50364 | 24255 ft | 386 kts | 276° |
| 2026-05-09 02:34 | 46.82159 | -69.54220 | 23941 ft | 376 kts | 276° |
| 2026-05-09 02:34 | 46.82457 | -69.57890 | 23874 ft | 361 kts | 276° |
| 2026-05-09 02:34 | 46.82750 | -69.61505 | 23878 ft | 358 kts | 276° |
| 2026-05-09 02:35 | 46.83040 | -69.65118 | 23833 ft | 357 kts | 275° |
| 2026-05-09 02:35 | 46.83329 | -69.68727 | 23183 ft | 360 kts | 275° |
| 2026-05-09 02:35 | 46.83622 | -69.72410 | 22118 ft | 369 kts | 275° |
| 2026-05-09 02:35 | 46.83919 | -69.76138 | 21344 ft | 371 kts | 276° |
| 2026-05-09 02:36 | 46.84214 | -69.79866 | 20606 ft | 365 kts | 276° |
| 2026-05-09 02:36 | 46.84505 | -69.83548 | 19763 ft | 364 kts | 276° |
| 2026-05-09 02:36 | 46.84793 | -69.87204 | 19189 ft | 360 kts | 276° |
| 2026-05-09 02:36 | 46.85075 | -69.90805 | 18777 ft | 353 kts | 276° |
| 2026-05-09 02:37 | 46.85351 | -69.94352 | 18288 ft | 349 kts | 276° |
| 2026-05-09 02:37 | 46.85624 | -69.97860 | 17752 ft | 345 kts | 276° |
| 2026-05-09 02:37 | 46.85890 | -70.01303 | 17302 ft | 339 kts | 276° |
| 2026-05-09 02:37 | 46.86148 | -70.04656 | 16856 ft | 333 kts | 276° |
| 2026-05-09 02:38 | 46.86404 | -70.07987 | 16410 ft | 327 kts | 276° |
| 2026-05-09 02:38 | 46.86654 | -70.11264 | 15979 ft | 322 kts | 276° |
| 2026-05-09 02:38 | 46.86900 | -70.14498 | 15534 ft | 319 kts | 276° |
| 2026-05-09 02:38 | 46.87144 | -70.17717 | 15100 ft | 316 kts | 276° |
| 2026-05-09 02:39 | 46.87384 | -70.20892 | 14670 ft | 313 kts | 276° |
| 2026-05-09 02:39 | 46.87622 | -70.24044 | 14249 ft | 311 kts | 276° |
| 2026-05-09 02:39 | 46.87857 | -70.27178 | 13824 ft | 309 kts | 276° |
| 2026-05-09 02:39 | 46.88090 | -70.30299 | 13357 ft | 307 kts | 276° |
| 2026-05-09 02:40 | 46.88320 | -70.33391 | 12932 ft | 304 kts | 275° |
| 2026-05-09 02:40 | 46.88544 | -70.36412 | 12521 ft | 301 kts | 275° |
| 2026-05-09 02:40 | 46.88768 | -70.39449 | 12103 ft | 299 kts | 275° |
| 2026-05-09 02:40 | 46.88989 | -70.42449 | 11709 ft | 296 kts | 275° |
| 2026-05-09 02:41 | 46.89207 | -70.45425 | 11321 ft | 293 kts | 275° |
| 2026-05-09 02:41 | 46.89423 | -70.48380 | 10914 ft | 291 kts | 276° |
| 2026-05-09 02:41 | 46.89637 | -70.51318 | 10520 ft | 289 kts | 275° |
| 2026-05-09 02:41 | 46.89848 | -70.54217 | 10268 ft | 281 kts | 275° |
| 2026-05-09 02:42 | 46.90048 | -70.56984 | 10186 ft | 267 kts | 275° |
| 2026-05-09 02:42 | 46.90239 | -70.59623 | 10084 ft | 256 kts | 275° |
| 2026-05-09 02:42 | 46.90423 | -70.62194 | 9770 ft | 254 kts | 275° |
| 2026-05-09 02:42 | 46.90607 | -70.64757 | 9395 ft | 253 kts | 275° |
| 2026-05-09 02:43 | 46.90789 | -70.67319 | 9059 ft | 252 kts | 275° |
| 2026-05-09 02:43 | 46.90970 | -70.69856 | 8735 ft | 251 kts | 275° |
| 2026-05-09 02:43 | 46.91149 | -70.72383 | 8401 ft | 249 kts | 275° |
| 2026-05-09 02:43 | 46.91324 | -70.74867 | 8063 ft | 247 kts | 275° |
| 2026-05-09 02:44 | 46.91500 | -70.77362 | 7749 ft | 246 kts | 275° |
| 2026-05-09 02:44 | 46.91675 | -70.79842 | 7429 ft | 245 kts | 275° |
| 2026-05-09 02:44 | 46.91848 | -70.82310 | 7124 ft | 243 kts | 275° |
| 2026-05-09 02:44 | 46.92019 | -70.84767 | 6806 ft | 241 kts | 275° |
| 2026-05-09 02:45 | 46.92189 | -70.87202 | 6508 ft | 240 kts | 275° |
| 2026-05-09 02:45 | 46.92357 | -70.89618 | 6187 ft | 238 kts | 275° |
| 2026-05-09 02:45 | 46.92523 | -70.92021 | 5865 ft | 237 kts | 275° |
| 2026-05-09 02:45 | 46.92688 | -70.94418 | 5556 ft | 236 kts | 275° |
| 2026-05-09 02:46 | 46.92852 | -70.96809 | 5240 ft | 235 kts | 275° |
| 2026-05-09 02:46 | 46.93015 | -70.99175 | 5000 ft | 232 kts | 275° |
| 2026-05-09 02:46 | 46.93175 | -71.01520 | 4940 ft | 232 kts | 275° |
| 2026-05-09 02:46 | 46.93335 | -71.03868 | 4850 ft | 232 kts | 275° |
| 2026-05-09 02:47 | 46.93493 | -71.06182 | 4773 ft | 220 kts | 275° |
| 2026-05-09 02:47 | 46.93639 | -71.08332 | 4651 ft | 213 kts | 275° |
| 2026-05-09 02:47 | 46.93784 | -71.10494 | 4547 ft | 214 kts | 275° |
| 2026-05-09 02:47 | 46.93930 | -71.12655 | 4464 ft | 214 kts | 275° |
| 2026-05-09 02:48 | 46.94075 | -71.14817 | 4181 ft | 213 kts | 275° |
| 2026-05-09 02:48 | 46.94064 | -71.16931 | 3977 ft | 201 kts | 256° |
| 2026-05-09 02:48 | 46.93440 | -71.18640 | 3980 ft | 182 kts | 232° |
| 2026-05-09 02:48 | 46.92615 | -71.19931 | 3835 ft | 167 kts | 228° |
| 2026-05-09 02:49 | 46.91796 | -71.21104 | 3546 ft | 163 kts | 227° |
| 2026-05-09 02:49 | 46.90979 | -71.22267 | 3324 ft | 164 kts | 227° |
| 2026-05-09 02:49 | 46.90163 | -71.23434 | 3132 ft | 163 kts | 227° |
| 2026-05-09 02:49 | 46.89366 | -71.24581 | 2890 ft | 163 kts | 227° |
| 2026-05-09 02:50 | 46.88573 | -71.25723 | 2687 ft | 154 kts | 227° |
| 2026-05-09 02:50 | 46.87841 | -71.26773 | 2443 ft | 140 kts | 228° |
| 2026-05-09 02:50 | 46.87167 | -71.27745 | 2233 ft | 134 kts | 228° |
| 2026-05-09 02:50 | 46.86505 | -71.28704 | 2097 ft | 134 kts | 228° |
| 2026-05-09 02:51 | 46.85843 | -71.29663 | 1937 ft | 134 kts | 227° |
| 2026-05-09 02:51 | 46.85182 | -71.30626 | 1749 ft | 134 kts | 227° |
| 2026-05-09 02:51 | 46.84519 | -71.31585 | 1531 ft | 133 kts | 227° |
| 2026-05-09 02:51 | 46.83862 | -71.32533 | 1360 ft | 133 kts | 226° |
| 2026-05-09 02:52 | 46.83199 | -71.33488 | 1160 ft | 135 kts | 226° |
| 2026-05-09 02:52 | 46.82528 | -71.34461 | 959 ft | 137 kts | 226° |
| 2026-05-09 02:52 | 46.81847 | -71.35451 | 757 ft | 139 kts | 225° |
| 2026-05-09 02:52 | 46.81156 | -71.36431 | 597 ft | 141 kts | 225° |
| 2026-05-09 02:53 | 46.80466 | -71.37453 | 400 ft | 141 kts | 221° |
| 2026-05-09 02:53 | 46.79764 | -71.38444 | 249 ft | 134 kts | 226° |
| 2026-05-09 02:53 | 46.79285 | -71.39136 | 249 ft | 56 kts | 224° |
| 2026-05-09 02:53 | 46.79054 | -71.39474 | 250 ft | 39 kts | 226° |
| 2026-05-09 02:54 | 46.78986 | -71.39581 | 250 ft | 5 kts | 226° |
| 2026-05-09 02:54 | 46.78930 | -71.39657 | 251 ft | 14 kts | 220° |
| 2026-05-09 02:54 | 46.78857 | -71.39687 | 253 ft | 10 kts | 131° |
| 2026-05-09 02:54 | 46.78838 | -71.39580 | 252 ft | 12 kts | 99° |
| 2026-05-09 02:55 | 46.78823 | -71.39453 | 249 ft | 14 kts | 97° |
| 2026-05-09 02:55 | 46.78872 | -71.39361 | 248 ft | 13 kts | 40° |
| 2026-05-09 02:55 | 46.78941 | -71.39274 | 247 ft | 13 kts | 40° |
| 2026-05-09 02:55 | 46.79012 | -71.39186 | 247 ft | 14 kts | 40° |
| 2026-05-09 02:56 | 46.79080 | -71.39092 | 247 ft | 13 kts | 45° |
| 2026-05-09 02:56 | 46.79145 | -71.38994 | 247 ft | 13 kts | 45° |